Time;durP1;ratioP1;P1;durP2;ratioP2;P2;SDS_P1;SDS_P2;PMS_P1;PMS_P2;Temp;Humidity;BMP_temperature;BMP_pressure;BME280_temperature;BME280_humidity;BME280_pressure;Samples;Min_cycle;Max_cycle;Signal;HPM_P1;HPM_P2
2023/03/06 00:00:28;;;;;;;15.38;7.70;;;;;;;;;;5016546;28;20041;-81
2023/03/06 00:02:54;;;;;;;12.77;5.68;;;;;;;;;;5001288;28;20033;-81
2023/03/06 00:05:20;;;;;;;11.63;5.63;;;;;;;;;;5009490;28;20048;-81
2023/03/06 00:07:46;;;;;;;12.05;5.43;;;;;;;;;;5012885;28;20026;-81
2023/03/06 00:10:20;;;;;;;13.75;5.97;;;;;;;;;;5007151;28;20029;-81
2023/03/06 00:12:46;;;;;;;9.77;4.93;;;;;;;;;;5002301;28;20325;-81
2023/03/06 00:15:13;;;;;;;12.65;5.90;;;;;;;;;;5016708;28;20037;-81
2023/03/06 00:17:39;;;;;;;10.73;5.18;;;;;;;;;;5011449;28;20041;-81
2023/03/06 00:20:06;;;;;;;10.73;5.72;;;;;;;;;;5000383;28;20050;-81
2023/03/06 00:22:32;;;;;;;12.05;5.80;;;;;;;;;;5003761;28;20026;-80
2023/03/06 00:24:58;;;;;;;11.65;6.20;;;;;;;;;;5005499;28;20570;-81
2023/03/06 00:27:25;;;;;;;11.88;5.68;;;;;;;;;;5002141;28;20023;-81
2023/03/06 00:29:57;;;;;;;12.52;5.78;;;;;;;;;;5000319;28;20026;-81
2023/03/06 00:32:24;;;;;;;15.68;6.32;;;;;;;;;;5003470;28;20096;-81
2023/03/06 00:34:50;;;;;;;12.13;5.80;;;;;;;;;;5001301;28;20076;-81
2023/03/06 00:37:16;;;;;;;12.88;6.10;;;;;;;;;;5001499;28;20454;-81
2023/03/06 00:39:42;;;;;;;11.38;5.85;;;;;;;;;;5011860;28;20144;-81
2023/03/06 00:42:08;;;;;;;12.15;5.38;;;;;;;;;;5019410;28;20045;-81
2023/03/06 00:44:34;;;;;;;9.85;5.20;;;;;;;;;;5007796;28;20429;-81
2023/03/06 00:47:00;;;;;;;12.55;6.00;;;;;;;;;;5004366;28;20105;-81
2023/03/06 00:49:26;;;;;;;12.20;5.97;;;;;;;;;;5004492;28;20041;-79
2023/03/06 00:51:52;;;;;;;14.02;6.40;;;;;;;;;;5008014;28;20413;-80
2023/03/06 00:54:18;;;;;;;12.95;6.03;;;;;;;;;;5013796;28;20040;-81
2023/03/06 00:56:44;;;;;;;11.43;5.30;;;;;;;;;;5019649;28;20528;-79
2023/03/06 00:59:10;;;;;;;10.60;5.65;;;;;;;;;;5017368;28;20177;-79
2023/03/06 01:01:36;;;;;;;9.55;4.53;;;;;;;;;;5004989;28;20022;-81
2023/03/06 01:04:03;;;;;;;10.73;5.28;;;;;;;;;;5018867;28;20108;-82
2023/03/06 01:06:29;;;;;;;11.07;5.38;;;;;;;;;;5006587;28;20383;-81
2023/03/06 01:08:55;;;;;;;11.60;5.57;;;;;;;;;;5001045;28;20062;-80
2023/03/06 01:11:21;;;;;;;10.52;4.80;;;;;;;;;;5000952;28;20034;-81
2023/03/06 01:13:47;;;;;;;12.30;4.78;;;;;;;;;;5012413;28;20022;-81
2023/03/06 01:16:13;;;;;;;8.48;4.18;;;;;;;;;;5000572;28;20045;-81
2023/03/06 01:18:39;;;;;;;11.55;4.75;;;;;;;;;;4999474;28;20030;-81
2023/03/06 01:21:06;;;;;;;9.63;3.97;;;;;;;;;;5012449;28;20041;-81
2023/03/06 01:23:32;;;;;;;9.95;4.45;;;;;;;;;;5017331;28;20037;-81
2023/03/06 01:25:58;;;;;;;9.43;4.07;;;;;;;;;;5007315;28;20029;-78
2023/03/06 01:28:24;;;;;;;9.35;4.35;;;;;;;;;;5000830;28;20026;-79
2023/03/06 01:30:51;;;;;;;9.60;3.88;;;;;;;;;;5012025;28;20087;-81
2023/03/06 01:33:17;;;;;;;9.82;4.18;;;;;;;;;;5018578;28;20036;-81
2023/03/06 01:35:45;;;;;;;10.25;4.22;;;;;;;;;;5011705;28;20042;-81
2023/03/06 01:38:11;;;;;;;8.80;3.78;;;;;;;;;;5020327;28;20030;-81
2023/03/06 01:40:37;;;;;;;6.53;3.13;;;;;;;;;;5019679;28;20022;-81
2023/03/06 01:43:29;;;;;;;7.45;3.20;;;;;;;;;;4999181;28;20034;-81
2023/03/06 01:46:14;;;;;;;7.15;3.40;;;;;;;;;;5005920;28;20034;-80
2023/03/06 01:48:40;;;;;;;8.32;4.00;;;;;;;;;;5015274;28;20069;-79
2023/03/06 01:51:06;;;;;;;8.13;3.60;;;;;;;;;;5013351;28;20045;-81
2023/03/06 01:53:32;;;;;;;7.63;3.53;;;;;;;;;;5012745;28;20067;-78
2023/03/06 01:55:58;;;;;;;7.10;3.40;;;;;;;;;;4997912;28;20061;-78
2023/03/06 01:58:24;;;;;;;9.60;3.75;;;;;;;;;;4996497;28;20441;-78
2023/03/06 02:00:50;;;;;;;7.93;3.17;;;;;;;;;;5020728;28;20036;-81
2023/03/06 02:03:21;;;;;;;9.40;3.33;;;;;;;;;;5018373;28;20481;-81
2023/03/06 02:05:47;;;;;;;8.38;3.35;;;;;;;;;;5011207;28;20026;-81
2023/03/06 02:08:15;;;;;;;7.68;3.15;;;;;;;;;;5001783;28;20023;-80
2023/03/06 02:10:57;;;;;;;9.13;3.50;;;;;;;;;;5015841;28;20029;-79
2023/03/06 02:13:23;;;;;;;8.07;2.93;;;;;;;;;;5002688;28;20022;-81
2023/03/06 02:15:49;;;;;;;6.90;3.42;;;;;;;;;;4999950;28;20034;-81
2023/03/06 02:18:15;;;;;;;6.68;3.38;;;;;;;;;;5014858;28;20034;-81
2023/03/06 02:20:52;;;;;;;5.90;2.28;;;;;;;;;;5016415;28;20022;-82
2023/03/06 02:23:37;;;;;;;6.57;2.92;;;;;;;;;;5007079;28;20026;-81
2023/03/06 02:26:03;;;;;;;7.13;3.53;;;;;;;;;;5000110;28;20109;-81
2023/03/06 02:28:29;;;;;;;7.35;3.00;;;;;;;;;;5002595;28;20022;-81
2023/03/06 02:30:56;;;;;;;8.02;3.28;;;;;;;;;;5007895;28;20033;-82
2023/03/06 02:33:27;;;;;;;7.20;2.72;;;;;;;;;;5010118;28;20026;-80
2023/03/06 02:35:54;;;;;;;7.75;3.25;;;;;;;;;;5023040;28;20068;-81
2023/03/06 02:38:21;;;;;;;8.07;3.45;;;;;;;;;;5031732;28;20034;-81
2023/03/06 02:40:49;;;;;;;7.78;3.20;;;;;;;;;;5001765;28;20099;-81
2023/03/06 02:43:16;;;;;;;6.65;2.75;;;;;;;;;;5008657;28;20034;-81
2023/03/06 02:45:44;;;;;;;7.07;2.95;;;;;;;;;;5005857;28;20096;-81
2023/03/06 02:48:11;;;;;;;7.82;2.90;;;;;;;;;;5016176;28;20442;-79
2023/03/06 02:50:38;;;;;;;9.18;5.13;;;;;;;;;;5020737;28;20491;-80
2023/03/06 02:53:04;;;;;;;6.43;2.33;;;;;;;;;;5010151;28;20042;-80
2023/03/06 02:55:30;;;;;;;6.60;3.05;;;;;;;;;;4999983;28;20031;-80
2023/03/06 02:57:56;;;;;;;8.05;2.90;;;;;;;;;;4998633;28;20076;-80
2023/03/06 03:00:22;;;;;;;6.32;3.28;;;;;;;;;;5010404;28;20040;-80
2023/03/06 03:02:48;;;;;;;6.10;2.72;;;;;;;;;;5000026;28;20046;-80
2023/03/06 03:05:14;;;;;;;6.65;3.05;;;;;;;;;;5007875;28;20104;-81
2023/03/06 03:07:40;;;;;;;7.43;2.95;;;;;;;;;;4998707;28;20018;-80
2023/03/06 03:10:06;;;;;;;7.72;3.25;;;;;;;;;;5000859;28;20473;-80
2023/03/06 03:12:32;;;;;;;7.57;2.95;;;;;;;;;;5017061;28;20049;-80
2023/03/06 03:14:58;;;;;;;7.22;3.63;;;;;;;;;;5004437;28;20033;-80
2023/03/06 03:17:24;;;;;;;6.60;2.67;;;;;;;;;;4999013;28;20034;-80
2023/03/06 03:19:51;;;;;;;7.00;2.45;;;;;;;;;;4997544;28;20371;-79
2023/03/06 03:22:17;;;;;;;5.88;2.67;;;;;;;;;;5013313;28;20026;-79
2023/03/06 03:24:43;;;;;;;6.68;2.67;;;;;;;;;;5021194;28;20072;-79
2023/03/06 03:27:09;;;;;;;7.82;2.67;;;;;;;;;;5002060;28;20026;-80
2023/03/06 03:29:35;;;;;;;5.93;2.22;;;;;;;;;;5012653;28;20065;-79
2023/03/06 03:32:01;;;;;;;5.57;2.50;;;;;;;;;;5021082;28;20034;-80
2023/03/06 03:34:28;;;;;;;6.30;2.60;;;;;;;;;;5021196;28;20326;-80
2023/03/06 03:36:54;;;;;;;6.70;2.88;;;;;;;;;;5021421;28;20370;-80
2023/03/06 03:39:20;;;;;;;5.63;2.00;;;;;;;;;;5009694;28;20023;-80
2023/03/06 03:41:46;;;;;;;6.63;2.80;;;;;;;;;;5001404;28;20030;-80
2023/03/06 03:44:12;;;;;;;7.07;2.63;;;;;;;;;;5020971;28;20168;-80
2023/03/06 03:46:38;;;;;;;5.88;2.60;;;;;;;;;;5018741;28;20386;-82
2023/03/06 03:49:05;;;;;;;7.15;2.70;;;;;;;;;;5023358;28;20053;-80
2023/03/06 03:51:31;;;;;;;5.63;2.40;;;;;;;;;;5004878;28;20030;-80
2023/03/06 03:53:57;;;;;;;6.22;2.50;;;;;;;;;;5005646;28;20056;-80
2023/03/06 03:56:24;;;;;;;5.50;2.40;;;;;;;;;;5001460;28;20034;-80
2023/03/06 03:58:50;;;;;;;6.10;2.70;;;;;;;;;;5013064;28;20062;-80
2023/03/06 04:01:16;;;;;;;6.95;2.80;;;;;;;;;;5024604;28;20033;-80
2023/03/06 04:03:42;;;;;;;11.02;3.03;;;;;;;;;;5006160;28;20030;-80
2023/03/06 04:06:08;;;;;;;6.30;2.50;;;;;;;;;;5003919;28;20050;-80
2023/03/06 04:08:34;;;;;;;5.38;2.25;;;;;;;;;;5001555;28;20037;-80
2023/03/06 04:11:01;;;;;;;8.77;3.35;;;;;;;;;;5001688;28;20069;-80
2023/03/06 04:13:27;;;;;;;7.93;3.25;;;;;;;;;;5012859;28;20022;-80
2023/03/06 04:15:54;;;;;;;6.35;2.90;;;;;;;;;;5002720;28;20046;-81
2023/03/06 04:18:21;;;;;;;7.03;3.38;;;;;;;;;;5003123;28;20430;-80
2023/03/06 04:20:48;;;;;;;5.55;2.58;;;;;;;;;;5001120;28;20025;-80
2023/03/06 04:23:14;;;;;;;6.18;2.75;;;;;;;;;;5000596;28;20075;-80
2023/03/06 04:25:43;;;;;;;7.03;2.60;;;;;;;;;;5005376;28;20026;-80
2023/03/06 04:28:09;;;;;;;6.60;2.70;;;;;;;;;;5010952;28;20386;-80
2023/03/06 04:30:35;;;;;;;6.28;2.58;;;;;;;;;;5001412;28;20031;-80
2023/03/06 04:33:01;;;;;;;6.07;2.80;;;;;;;;;;4999343;28;20073;-80
2023/03/06 04:35:28;;;;;;;6.05;3.17;;;;;;;;;;5005473;28;20079;-80
2023/03/06 04:37:54;;;;;;;6.57;2.78;;;;;;;;;;5011813;28;20038;-79
2023/03/06 04:40:21;;;;;;;7.15;3.20;;;;;;;;;;5015904;28;20128;-81
2023/03/06 04:42:48;;;;;;;6.30;3.00;;;;;;;;;;5015077;28;20026;-80
2023/03/06 04:45:14;;;;;;;7.13;2.78;;;;;;;;;;4999630;28;20446;-80
2023/03/06 04:47:40;;;;;;;7.68;3.30;;;;;;;;;;5004477;28;20041;-79
2023/03/06 04:50:07;;;;;;;6.53;2.72;;;;;;;;;;5019426;28;20026;-78
2023/03/06 04:52:33;;;;;;;6.13;2.40;;;;;;;;;;5014224;28;20030;-80
2023/03/06 04:54:59;;;;;;;7.03;2.80;;;;;;;;;;5005339;28;20110;-80
2023/03/06 04:57:25;;;;;;;6.35;2.70;;;;;;;;;;4999165;28;20105;-80
2023/03/06 04:59:51;;;;;;;7.43;3.42;;;;;;;;;;5001629;28;20034;-80
2023/03/06 05:02:17;;;;;;;5.65;2.75;;;;;;;;;;5000825;28;20018;-80
2023/03/06 05:04:43;;;;;;;6.68;2.95;;;;;;;;;;5004092;28;20107;-80
2023/03/06 05:07:10;;;;;;;7.72;2.92;;;;;;;;;;5013437;28;20052;-80
2023/03/06 05:09:36;;;;;;;6.75;3.58;;;;;;;;;;5000493;28;20134;-79
2023/03/06 05:12:03;;;;;;;8.05;3.45;;;;;;;;;;5009307;28;20038;-80
2023/03/06 05:14:30;;;;;;;9.35;3.90;;;;;;;;;;5003372;28;20033;-80
2023/03/06 05:16:56;;;;;;;9.35;3.90;;;;;;;;;;5015358;28;20030;-80
2023/03/06 05:19:22;;;;;;;7.93;3.40;;;;;;;;;;5023241;28;20049;-78
2023/03/06 05:21:48;;;;;;;8.55;3.20;;;;;;;;;;5031645;28;20022;-79
2023/03/06 05:24:14;;;;;;;12.27;5.57;;;;;;;;;;5013251;28;20037;-80
2023/03/06 05:26:40;;;;;;;15.07;7.57;;;;;;;;;;5006521;28;20084;-80
2023/03/06 05:29:06;;;;;;;13.85;6.60;;;;;;;;;;5010348;28;20058;-80
2023/03/06 05:31:32;;;;;;;8.55;4.75;;;;;;;;;;4998368;28;20054;-79
2023/03/06 05:33:59;;;;;;;10.68;4.30;;;;;;;;;;5017245;28;20096;-80
2023/03/06 05:36:25;;;;;;;7.78;3.72;;;;;;;;;;5007423;28;20025;-80
2023/03/06 05:38:51;;;;;;;10.10;4.20;;;;;;;;;;5011433;28;20049;-79
2023/03/06 05:41:17;;;;;;;10.05;4.53;;;;;;;;;;5019386;28;20301;-80
2023/03/06 05:43:43;;;;;;;9.55;4.05;;;;;;;;;;5023230;28;20022;-81
2023/03/06 05:46:10;;;;;;;8.43;3.60;;;;;;;;;;5011909;28;20022;-81
2023/03/06 05:48:36;;;;;;;9.25;4.20;;;;;;;;;;5024615;28;20046;-81
2023/03/06 05:51:03;;;;;;;8.25;3.90;;;;;;;;;;5004662;28;20185;-80
2023/03/06 05:53:29;;;;;;;8.50;4.00;;;;;;;;;;5009171;28;20026;-80
2023/03/06 05:55:59;;;;;;;11.73;4.95;;;;;;;;;;5011477;28;20041;-81
2023/03/06 05:58:25;;;;;;;12.82;6.30;;;;;;;;;;5007068;28;20054;-79
2023/03/06 06:00:51;;;;;;;10.40;5.72;;;;;;;;;;5006159;28;20070;-81
2023/03/06 06:03:18;;;;;;;14.50;6.53;;;;;;;;;;5016676;28;20117;-81
2023/03/06 06:05:44;;;;;;;12.13;5.78;;;;;;;;;;5011896;28;20307;-81
2023/03/06 06:08:10;;;;;;;13.07;5.82;;;;;;;;;;5017385;28;20021;-80
2023/03/06 06:10:37;;;;;;;13.85;6.10;;;;;;;;;;5021906;28;20076;-81
2023/03/06 06:13:03;;;;;;;12.80;6.22;;;;;;;;;;5005393;28;21141;-81
2023/03/06 06:15:29;;;;;;;13.98;6.03;;;;;;;;;;5014460;28;20058;-80
2023/03/06 06:17:56;;;;;;;14.82;6.88;;;;;;;;;;5013946;28;20025;-80
2023/03/06 06:20:22;;;;;;;15.07;7.57;;;;;;;;;;5006232;28;20109;-80
2023/03/06 06:22:48;;;;;;;12.40;5.30;;;;;;;;;;5000359;28;20022;-80
2023/03/06 06:25:14;;;;;;;10.90;5.10;;;;;;;;;;5004778;28;20022;-80
2023/03/06 06:27:40;;;;;;;10.30;4.10;;;;;;;;;;4998585;28;20026;-80
2023/03/06 06:30:08;;;;;;;9.98;4.28;;;;;;;;;;5002665;28;20023;-80
2023/03/06 06:32:34;;;;;;;8.43;4.65;;;;;;;;;;5009333;28;20379;-80
2023/03/06 06:35:00;;;;;;;8.55;3.83;;;;;;;;;;4999852;28;20041;-80
2023/03/06 06:37:26;;;;;;;7.78;4.10;;;;;;;;;;5005574;28;20066;-81
2023/03/06 06:39:52;;;;;;;9.32;4.60;;;;;;;;;;5001286;28;20035;-80
2023/03/06 06:42:18;;;;;;;10.00;4.75;;;;;;;;;;5001917;28;20049;-80
2023/03/06 06:44:44;;;;;;;16.60;8.05;;;;;;;;;;5009043;28;20026;-80
2023/03/06 06:47:10;;;;;;;21.77;8.63;;;;;;;;;;5006057;28;20094;-79
2023/03/06 06:49:36;;;;;;;19.27;8.35;;;;;;;;;;5006296;28;20065;-81
2023/03/06 06:52:03;;;;;;;13.85;6.70;;;;;;;;;;5006144;28;20014;-80
2023/03/06 06:54:29;;;;;;;19.13;7.88;;;;;;;;;;5007002;28;20037;-80
2023/03/06 06:56:55;;;;;;;12.38;5.30;;;;;;;;;;4999124;28;20066;-81
2023/03/06 06:59:22;;;;;;;14.55;6.72;;;;;;;;;;5012375;28;20049;-81
2023/03/06 07:01:48;;;;;;;12.52;5.53;;;;;;;;;;4999526;28;20438;-80
2023/03/06 07:04:15;;;;;;;12.80;4.75;;;;;;;;;;5001981;28;20031;-80
2023/03/06 07:06:41;;;;;;;10.52;4.25;;;;;;;;;;5014606;28;20052;-79
2023/03/06 07:09:09;;;;;;;14.73;5.32;;;;;;;;;;5020672;28;20071;-80
2023/03/06 07:11:37;;;;;;;13.70;5.93;;;;;;;;;;5021067;28;20052;-81
2023/03/06 07:14:03;;;;;;;17.17;7.15;;;;;;;;;;5021499;28;20026;-81
2023/03/06 07:16:29;;;;;;;15.27;5.78;;;;;;;;;;5018069;28;20080;-82
2023/03/06 07:18:55;;;;;;;10.32;5.75;;;;;;;;;;5019060;28;20056;-82
2023/03/06 07:21:21;;;;;;;18.27;6.55;;;;;;;;;;5020158;28;20034;-81
2023/03/06 07:23:47;;;;;;;12.52;5.95;;;;;;;;;;5019101;28;20025;-81
2023/03/06 07:26:13;;;;;;;15.10;5.75;;;;;;;;;;5021567;28;20022;-81
2023/03/06 07:28:39;;;;;;;14.38;5.93;;;;;;;;;;5020577;28;20018;-81
2023/03/06 07:31:10;;;;;;;17.70;5.90;;;;;;;;;;5006104;28;20121;-81
2023/03/06 07:33:36;;;;;;;14.07;6.13;;;;;;;;;;5000832;28;20029;-81
2023/03/06 07:36:02;;;;;;;16.05;6.40;;;;;;;;;;5002044;28;20077;-81
2023/03/06 07:38:28;;;;;;;16.33;7.13;;;;;;;;;;5002619;28;20018;-81
2023/03/06 07:40:54;;;;;;;14.93;5.65;;;;;;;;;;5013064;28;20112;-81
2023/03/06 07:43:20;;;;;;;13.77;6.85;;;;;;;;;;5021866;28;20022;-81
2023/03/06 07:45:46;;;;;;;12.32;6.60;;;;;;;;;;5021124;28;20021;-81
2023/03/06 07:48:13;;;;;;;15.27;6.47;;;;;;;;;;5020284;28;20037;-81
2023/03/06 07:50:40;;;;;;;13.32;6.50;;;;;;;;;;5018092;28;20033;-81
2023/03/06 07:53:06;;;;;;;15.82;6.75;;;;;;;;;;5019032;28;20022;-81
2023/03/06 07:55:32;;;;;;;14.88;6.53;;;;;;;;;;5012699;28;20030;-81
2023/03/06 07:57:58;;;;;;;12.10;6.47;;;;;;;;;;4999058;28;20030;-81
2023/03/06 08:00:24;;;;;;;16.63;5.53;;;;;;;;;;5006877;28;20038;-81
2023/03/06 08:02:50;;;;;;;14.98;6.63;;;;;;;;;;5021975;28;20549;-81
2023/03/06 08:05:17;;;;;;;15.23;6.07;;;;;;;;;;5023046;28;20030;-81
2023/03/06 08:07:44;;;;;;;15.65;6.55;;;;;;;;;;5017989;28;20090;-81
2023/03/06 08:10:12;;;;;;;14.73;7.00;;;;;;;;;;5014394;28;20466;-80
2023/03/06 08:12:38;;;;;;;14.38;6.65;;;;;;;;;;5022832;28;20025;-81
2023/03/06 08:15:05;;;;;;;12.93;6.32;;;;;;;;;;5017695;28;20033;-81
2023/03/06 08:17:31;;;;;;;13.95;6.90;;;;;;;;;;5002165;28;20142;-81
2023/03/06 08:19:57;;;;;;;13.40;6.28;;;;;;;;;;5003004;28;20026;-81
2023/03/06 08:22:23;;;;;;;20.52;7.70;;;;;;;;;;5001562;28;20023;-80
2023/03/06 08:24:49;;;;;;;12.80;7.05;;;;;;;;;;5000644;28;20092;-80
2023/03/06 08:27:15;;;;;;;15.10;7.35;;;;;;;;;;5020684;28;20314;-81
2023/03/06 08:29:41;;;;;;;11.70;6.57;;;;;;;;;;5021009;28;20030;-81
2023/03/06 08:32:10;;;;;;;13.88;7.43;;;;;;;;;;5021646;28;20022;-82
2023/03/06 08:34:38;;;;;;;13.70;7.82;;;;;;;;;;5024513;28;20033;-80
2023/03/06 08:37:04;;;;;;;12.75;6.35;;;;;;;;;;5027233;28;20033;-80
2023/03/06 08:39:30;;;;;;;13.77;7.65;;;;;;;;;;5013280;28;20049;-80
2023/03/06 08:41:56;;;;;;;11.20;6.82;;;;;;;;;;5011980;28;20034;-80
2023/03/06 08:44:22;;;;;;;10.70;7.13;;;;;;;;;;5013075;28;20014;-79
2023/03/06 08:46:48;;;;;;;12.40;6.78;;;;;;;;;;5016938;28;20011;-80
2023/03/06 08:49:14;;;;;;;18.50;7.47;;;;;;;;;;5016486;28;20034;-81
2023/03/06 08:51:41;;;;;;;14.32;8.07;;;;;;;;;;5011406;28;20057;-80
2023/03/06 08:54:07;;;;;;;15.85;8.40;;;;;;;;;;5009781;28;20037;-79
2023/03/06 08:56:34;;;;;;;13.43;6.85;;;;;;;;;;5029897;28;20045;-80
2023/03/06 08:59:01;;;;;;;13.23;7.40;;;;;;;;;;5025595;28;20044;-80
2023/03/06 09:01:28;;;;;;;16.35;7.78;;;;;;;;;;5024466;28;20030;-80
2023/03/06 09:03:55;;;;;;;14.98;8.43;;;;;;;;;;5030010;28;20060;-81
2023/03/06 09:06:21;;;;;;;14.90;7.50;;;;;;;;;;5012750;28;20041;-82
2023/03/06 09:08:49;;;;;;;15.18;7.18;;;;;;;;;;5009842;28;20018;-80
2023/03/06 09:11:15;;;;;;;13.98;7.70;;;;;;;;;;5010805;28;20043;-80
2023/03/06 09:13:42;;;;;;;14.00;7.40;;;;;;;;;;5007650;28;20038;-80
2023/03/06 09:16:09;;;;;;;14.80;7.35;;;;;;;;;;5008500;28;20113;-81
2023/03/06 09:18:35;;;;;;;13.02;7.68;;;;;;;;;;5008037;28;20033;-81
2023/03/06 09:21:02;;;;;;;13.80;7.47;;;;;;;;;;5022993;28;20034;-81
2023/03/06 09:23:28;;;;;;;12.50;6.47;;;;;;;;;;5025125;28;20022;-80
2023/03/06 09:25:55;;;;;;;14.85;8.00;;;;;;;;;;5026621;28;20022;-80
2023/03/06 09:28:22;;;;;;;14.80;7.57;;;;;;;;;;5030677;28;20060;-79
2023/03/06 09:30:48;;;;;;;10.70;6.20;;;;;;;;;;5026221;28;20033;-80
2023/03/06 09:33:14;;;;;;;11.63;6.43;;;;;;;;;;5028101;28;20034;-80
2023/03/06 09:35:51;;;;;;;13.13;6.53;;;;;;;;;;5014655;28;20034;-79
2023/03/06 09:38:17;;;;;;;14.60;7.40;;;;;;;;;;5012534;28;20026;-80
2023/03/06 09:41:05;;;;;;;11.63;6.22;;;;;;;;;;5014638;28;20030;-80
2023/03/06 09:43:36;;;;;;;12.60;7.38;;;;;;;;;;5012685;28;20022;-81
2023/03/06 09:46:07;;;;;;;12.23;6.87;;;;;;;;;;5011528;28;20049;-81
2023/03/06 09:48:45;;;;;;;12.30;6.30;;;;;;;;;;5008346;28;20106;-80
2023/03/06 09:51:14;;;;;;;14.45;7.05;;;;;;;;;;5006187;28;20113;-81
2023/03/06 09:53:49;;;;;;;14.75;7.40;;;;;;;;;;5006361;28;20039;-80
2023/03/06 09:56:19;;;;;;;15.50;7.03;;;;;;;;;;5020112;28;20054;-80
2023/03/06 09:58:47;;;;;;;13.43;7.03;;;;;;;;;;5028655;28;20010;-80
2023/03/06 10:01:46;;;;;;;12.75;6.68;;;;;;;;;;5022918;28;20018;-81
2023/03/06 10:04:15;;;;;;;12.00;6.32;;;;;;;;;;4971121;28;20034;-81
2023/03/06 10:06:41;;;;;;;13.80;6.93;;;;;;;;;;4985101;28;20093;-81
2023/03/06 10:09:16;;;;;;;12.07;6.78;;;;;;;;;;4970396;28;20023;-80
2023/03/06 10:11:48;;;;;;;13.50;6.72;;;;;;;;;;4982432;28;20113;-80
2023/03/06 10:14:31;;;;;;;14.10;7.35;;;;;;;;;;5010729;28;20498;-79
2023/03/06 10:16:57;;;;;;;;;;;;;;;;;;4991283;28;20035;-80
2023/03/06 10:19:29;;;;;;;11.60;6.07;;;;;;;;;;4967573;28;20373;-80
2023/03/06 10:21:58;;;;;;;11.40;6.28;;;;;;;;;;5001675;28;20042;-81
2023/03/06 10:24:27;;;;;;;13.50;6.68;;;;;;;;;;5002994;28;20109;-81
2023/03/06 10:27:03;;;;;;;11.38;5.85;;;;;;;;;;4984200;28;20038;-81
2023/03/06 10:29:39;;;;;;;11.88;6.57;;;;;;;;;;4987761;28;20022;-81
2023/03/06 10:32:14;;;;;;;13.63;6.47;;;;;;;;;;4983273;28;20031;-81
2023/03/06 10:34:41;;;;;;;11.02;6.25;;;;;;;;;;4981590;28;20182;-80
2023/03/06 10:37:28;;;;;;;12.75;6.25;;;;;;;;;;4997453;28;20193;-82
2023/03/06 10:40:03;;;;;;;11.60;6.60;;;;;;;;;;4998097;28;20118;-82
2023/03/06 10:42:29;;;;;;;12.52;6.97;;;;;;;;;;5011895;28;20086;-82
2023/03/06 10:45:12;;;;;;;10.82;6.22;;;;;;;;;;5016575;28;20452;-82
2023/03/06 10:47:39;;;;;;;11.95;6.53;;;;;;;;;;5009200;28;20078;-81
2023/03/06 10:50:17;;;;;;;15.27;7.18;;;;;;;;;;5009600;28;20051;-82
2023/03/06 10:52:43;;;;;;;13.00;5.88;;;;;;;;;;5009232;28;20026;-81
2023/03/06 10:55:28;;;;;;;13.70;7.78;;;;;;;;;;5016515;28;20056;-81
2023/03/06 10:57:54;;;;;;;14.13;7.10;;;;;;;;;;5027040;28;20052;-82
2023/03/06 11:00:25;;;;;;;14.50;6.50;;;;;;;;;;5030258;28;20042;-82
2023/03/06 11:03:03;;;;;;;12.82;7.28;;;;;;;;;;5008885;28;20066;-81
2023/03/06 11:05:30;;;;;;;15.40;7.43;;;;;;;;;;5009766;28;20030;-81
2023/03/06 11:07:58;;;;;;;14.32;7.28;;;;;;;;;;5010985;28;20033;-82
2023/03/06 11:10:24;;;;;;;13.70;6.80;;;;;;;;;;5021482;28;20049;-82
2023/03/06 11:12:56;;;;;;;17.63;7.80;;;;;;;;;;5022720;28;20049;-82
2023/03/06 11:15:23;;;;;;;13.05;7.00;;;;;;;;;;5013289;28;20033;-82
2023/03/06 11:17:49;;;;;;;12.68;6.65;;;;;;;;;;5013232;28;20111;-81
2023/03/06 11:20:15;;;;;;;14.23;7.18;;;;;;;;;;5025436;28;20105;-83
2023/03/06 11:22:45;;;;;;;13.82;6.88;;;;;;;;;;5030054;28;20658;-81
2023/03/06 11:25:12;;;;;;;11.02;6.40;;;;;;;;;;5031561;28;20041;-81
2023/03/06 11:27:41;;;;;;;13.70;6.85;;;;;;;;;;5023093;28;20114;-81
2023/03/06 11:30:16;;;;;;;13.30;7.20;;;;;;;;;;5021883;28;20098;-82
2023/03/06 11:32:49;;;;;;;14.15;8.25;;;;;;;;;;5016152;28;20037;-82
2023/03/06 11:35:26;;;;;;;15.68;6.93;;;;;;;;;;5035904;28;20080;-82
2023/03/06 11:37:54;;;;;;;12.27;7.07;;;;;;;;;;5032815;28;20026;-81
2023/03/06 11:40:24;;;;;;;13.98;7.85;;;;;;;;;;5007991;28;20030;-80
2023/03/06 11:43:02;;;;;;;12.85;6.07;;;;;;;;;;5026200;28;20481;-80
2023/03/06 11:45:36;;;;;;;13.23;7.25;;;;;;;;;;5013926;28;20030;-81
2023/03/06 11:48:20;;;;;;;12.88;6.28;;;;;;;;;;5015941;28;20088;-81
2023/03/06 11:50:49;;;;;;;14.73;7.32;;;;;;;;;;5019995;28;20040;-81
2023/03/06 11:53:16;;;;;;;12.35;6.03;;;;;;;;;;5007322;28;20022;-82
2023/03/06 11:55:48;;;;;;;12.68;6.80;;;;;;;;;;5020867;28;20030;-81
2023/03/06 11:58:18;;;;;;;17.33;7.00;;;;;;;;;;5013489;28;20152;-81
2023/03/06 12:00:50;;;;;;;13.10;6.75;;;;;;;;;;5004985;28;20126;-82
2023/03/06 12:03:19;;;;;;;13.00;7.22;;;;;;;;;;5008052;28;20018;-83
2023/03/06 12:05:53;;;;;;;12.40;6.45;;;;;;;;;;5004385;28;20026;-82
2023/03/06 12:08:37;;;;;;;12.43;6.68;;;;;;;;;;5020633;28;20025;-82
2023/03/06 12:11:03;;;;;;;11.70;6.95;;;;;;;;;;5013197;28;20030;-81
2023/03/06 12:13:29;;;;;;;11.40;5.97;;;;;;;;;;5032512;28;20057;-80
2023/03/06 12:16:15;;;;;;;12.93;6.85;;;;;;;;;;5025832;28;20018;-80
2023/03/06 12:18:46;;;;;;;12.20;6.78;;;;;;;;;;5022891;28;20061;-82
2023/03/06 12:21:22;;;;;;;14.00;7.20;;;;;;;;;;5019629;28;20036;-82
2023/03/06 12:24:07;;;;;;;12.50;7.25;;;;;;;;;;5017677;28;20025;-83
2023/03/06 12:26:52;;;;;;;15.18;7.10;;;;;;;;;;4998943;28;20105;-82
2023/03/06 12:29:24;;;;;;;12.57;6.45;;;;;;;;;;4999063;28;20025;-83
2023/03/06 12:32:02;;;;;;;11.73;6.82;;;;;;;;;;4999600;28;20587;-82
2023/03/06 12:34:31;;;;;;;12.43;6.90;;;;;;;;;;5002287;28;20019;-82
2023/03/06 12:37:09;;;;;;;13.77;6.22;;;;;;;;;;5004835;28;20061;-83
2023/03/06 12:39:52;;;;;;;12.10;6.40;;;;;;;;;;5000105;28;20026;-84
2023/03/06 12:42:34;;;;;;;14.05;7.38;;;;;;;;;;4999108;28;20397;-82
2023/03/06 12:45:03;;;;;;;11.75;7.28;;;;;;;;;;5016838;28;20072;-82
2023/03/06 12:47:31;;;;;;;13.25;7.30;;;;;;;;;;5018022;28;20034;-82
2023/03/06 12:50:13;;;;;;;12.38;6.63;;;;;;;;;;5018553;28;20362;-83
2023/03/06 12:52:39;;;;;;;12.70;6.90;;;;;;;;;;5012037;28;20026;-84
2023/03/06 12:55:07;;;;;;;16.67;7.47;;;;;;;;;;5001807;28;20398;-83
2023/03/06 12:57:33;;;;;;;14.27;6.40;;;;;;;;;;5002865;28;20018;-83
2023/03/06 12:59:59;;;;;;;14.57;7.45;;;;;;;;;;4999814;28;20113;-84
2023/03/06 13:02:43;;;;;;;14.20;7.93;;;;;;;;;;5016492;28;20061;-83
2023/03/06 13:05:28;;;;;;;15.38;7.45;;;;;;;;;;5022560;28;20086;-84
2023/03/06 13:08:16;;;;;;;13.52;7.95;;;;;;;;;;4999609;28;20034;-83
2023/03/06 13:10:43;;;;;;;13.40;7.15;;;;;;;;;;5000922;28;20069;-84
2023/03/06 13:13:21;;;;;;;21.02;7.43;;;;;;;;;;5002383;28;20517;-84
2023/03/06 13:16:07;;;;;;;15.68;7.15;;;;;;;;;;5020546;28;20052;-84
2023/03/06 13:18:33;;;;;;;14.45;6.97;;;;;;;;;;5025026;28;20053;-84
2023/03/06 13:20:59;;;;;;;11.13;6.95;;;;;;;;;;5019042;28;20266;-84
2023/03/06 13:23:34;;;;;;;13.77;6.72;;;;;;;;;;5021461;28;20057;-83
2023/03/06 13:26:07;;;;;;;15.55;7.50;;;;;;;;;;5024476;28;20496;-83
2023/03/06 13:28:48;;;;;;;15.25;7.63;;;;;;;;;;5006216;28;20439;-83
2023/03/06 13:31:27;;;;;;;16.27;8.20;;;;;;;;;;5018582;28;20037;-84
2023/03/06 13:33:54;;;;;;;15.10;7.00;;;;;;;;;;5010150;28;20052;-84
2023/03/06 13:36:23;;;;;;;18.35;7.90;;;;;;;;;;5000531;28;20065;-84
2023/03/06 13:38:52;;;;;;;14.82;7.82;;;;;;;;;;5011582;28;20112;-83
2023/03/06 13:41:21;;;;;;;14.52;7.32;;;;;;;;;;5011995;28;20026;-84
2023/03/06 13:43:57;;;;;;;14.15;7.55;;;;;;;;;;5001995;28;20029;-83
2023/03/06 13:46:35;;;;;;;15.43;7.43;;;;;;;;;;5016266;28;20029;-84
2023/03/06 13:49:07;;;;;;;12.68;6.85;;;;;;;;;;5018069;28;20398;-84
2023/03/06 13:51:47;;;;;;;14.55;7.97;;;;;;;;;;5037856;28;20075;-84
2023/03/06 13:54:16;;;;;;;14.90;7.05;;;;;;;;;;5021600;28;20030;-83
2023/03/06 13:57:00;;;;;;;16.65;7.90;;;;;;;;;;5005652;28;20052;-84
2023/03/06 13:59:39;;;;;;;13.90;7.53;;;;;;;;;;5004749;28;20061;-83
2023/03/06 14:02:09;;;;;;;13.57;7.03;;;;;;;;;;5007774;28;20148;-84
2023/03/06 14:04:45;;;;;;;14.93;6.78;;;;;;;;;;4998557;28;20084;-84
2023/03/06 14:07:29;;;;;;;12.90;7.70;;;;;;;;;;5011262;28;20022;-83
2023/03/06 14:10:14;;;;;;;13.45;7.20;;;;;;;;;;5007780;28;20030;-84
2023/03/06 14:12:42;;;;;;;13.27;6.90;;;;;;;;;;5014433;28;20518;-84
2023/03/06 14:15:11;;;;;;;12.25;6.18;;;;;;;;;;5002600;28;20030;-83
2023/03/06 14:17:38;;;;;;;13.05;6.38;;;;;;;;;;5006789;28;20111;-84
2023/03/06 14:20:14;;;;;;;14.90;7.10;;;;;;;;;;5017895;28;20018;-83
2023/03/06 14:22:40;;;;;;;12.70;6.88;;;;;;;;;;5020297;28;20022;-83
2023/03/06 14:25:15;;;;;;;11.15;5.20;;;;;;;;;;5017530;28;20061;-83
2023/03/06 14:27:43;;;;;;;16.08;7.30;;;;;;;;;;5010629;28;20113;-80
2023/03/06 14:30:13;;;;;;;17.60;7.22;;;;;;;;;;5007054;28;20425;-80
2023/03/06 14:32:40;;;;;;;12.20;5.60;;;;;;;;;;5018787;28;20026;-80
2023/03/06 14:35:06;;;;;;;13.02;6.75;;;;;;;;;;5005880;28;20030;-83
2023/03/06 14:37:34;;;;;;;10.80;6.07;;;;;;;;;;5002110;28;20021;-79
2023/03/06 14:40:01;;;;;;;17.38;6.93;;;;;;;;;;5014910;28;20406;-81
2023/03/06 14:42:27;;;;;;;11.82;5.70;;;;;;;;;;5008736;28;20041;-79